Time;durP1;ratioP1;P1;durP2;ratioP2;P2;SDS_P1;SDS_P2;PMS_P1;PMS_P2;Temp;Humidity;BMP_temperature;BMP_pressure;BME280_temperature;BME280_humidity;BME280_pressure;Samples;Min_cycle;Max_cycle;Signal;HPM_P1;HPM_P2
2022/01/27 00:03:13;;;;;;;18.00;8.27;;;;;0.80;97360.00;;;;8337312;28;20832;-72
2022/01/27 00:07:16;;;;;;;14.57;7.13;;;;;0.90;97341.00;;;;8342450;28;20225;-72
2022/01/27 00:11:20;;;;;;;16.77;8.30;;;;;0.90;97333.00;;;;8344513;28;20239;-72
2022/01/27 00:15:30;;;;;;;17.03;8.27;;;;;0.90;97341.00;;;;8346484;28;20633;-72
2022/01/27 00:19:33;;;;;;;15.47;7.97;;;;;0.90;97336.00;;;;8339040;28;21004;-72
2022/01/27 00:23:36;;;;;;;15.87;7.47;;;;;0.90;97355.00;;;;8334879;28;20222;-72
2022/01/27 00:27:40;;;;;;;14.73;8.00;;;;;0.90;97352.00;;;;8345804;28;20228;-72
2022/01/27 00:31:43;;;;;;;15.23;7.67;;;;;0.90;97342.00;;;;8337852;28;20834;-72
2022/01/27 00:35:46;;;;;;;16.10;8.23;;;;;0.80;97333.00;;;;8344346;28;20233;-72
2022/01/27 00:39:49;;;;;;;16.63;8.77;;;;;0.90;97325.00;;;;8341754;28;20578;-71
2022/01/27 00:43:54;;;;;;;19.30;8.60;;;;;0.90;97326.00;;;;8340971;28;20684;-71
2022/01/27 00:48:00;;;;;;;15.77;8.53;;;;;0.90;97324.00;;;;8328990;28;20648;-72
2022/01/27 00:52:07;;;;;;;15.73;7.60;;;;;0.90;97328.00;;;;8343035;28;20264;-72
2022/01/27 00:56:19;;;;;;;15.30;8.00;;;;;0.90;97322.00;;;;8335027;28;20294;-72
2022/01/27 01:00:28;;;;;;;14.67;7.43;;;;;0.90;97320.00;;;;8338335;28;20311;-72
2022/01/27 01:04:35;;;;;;;18.23;8.70;;;;;0.90;97323.00;;;;8343301;28;20287;-71
2022/01/27 01:17:42;;;;;;;19.43;9.80;;;;;0.90;97329.00;;;;8330384;28;20236;-71
2022/01/27 01:21:49;;;;;;;22.23;9.57;;;;;0.90;97313.00;;;;8335750;28;20736;-71
2022/01/27 01:30:46;;;;;;;18.87;9.57;;;;;0.90;97297.00;;;;8334723;28;20235;-71
2022/01/27 01:34:51;;;;;;;30.30;12.53;;;;;0.90;97298.00;;;;8341938;28;20233;-71
2022/01/27 01:38:54;;;;;;;28.17;10.63;;;;;0.80;97313.00;;;;8336516;28;20224;-71
2022/01/27 01:42:57;;;;;;;28.53;12.03;;;;;0.80;97303.00;;;;8340538;28;20232;-70
2022/01/27 01:47:01;;;;;;;32.20;13.67;;;;;0.70;97307.00;;;;8342851;28;20224;-71
2022/01/27 01:51:05;;;;;;;35.20;13.10;;;;;0.70;97294.00;;;;8338402;28;20276;-71
2022/01/27 01:55:10;;;;;;;41.43;14.50;;;;;0.80;97308.00;;;;8345926;28;20233;-71
2022/01/27 01:59:13;;;;;;;42.47;15.77;;;;;0.80;97301.00;;;;8336607;28;20262;-71
2022/01/27 02:03:16;;;;;;;36.00;14.27;;;;;0.80;97294.00;;;;8338387;28;20723;-71
2022/01/27 02:07:32;;;;;;;37.30;14.27;;;;;0.90;97286.00;;;;8341312;28;21280;-71
2022/01/27 02:20:19;;;;;;;35.63;14.10;;;;;0.70;97263.00;;;;8337754;28;20243;-71
2022/01/27 02:24:24;;;;;;;37.43;13.57;;;;;0.70;97278.00;;;;8340776;28;20665;-69
2022/01/27 02:28:26;;;;;;;31.27;13.60;;;;;0.60;97261.00;;;;8335264;28;20371;-70
2022/01/27 02:32:29;;;;;;;35.57;14.37;;;;;0.70;97241.00;;;;8320702;28;20237;-70
2022/01/27 02:36:34;;;;;;;33.70;13.90;;;;;0.70;97259.00;;;;8339716;28;20237;-69
2022/01/27 02:40:40;;;;;;;34.40;14.07;;;;;0.70;97265.00;;;;8343506;28;20224;-70
2022/01/27 02:45:02;;;;;;;33.10;13.60;;;;;0.80;97247.00;;;;8348965;28;20674;-70
2022/01/27 02:49:05;;;;;;;30.50;12.73;;;;;0.80;97245.00;;;;8338379;28;20273;-69
2022/01/27 02:53:09;;;;;;;33.70;14.43;;;;;0.80;97255.00;;;;8333613;28;20255;-69
2022/01/27 02:57:13;;;;;;;34.80;14.60;;;;;0.90;97253.00;;;;8337421;28;20953;-69
2022/01/27 03:05:41;;;;;;;32.93;13.60;;;;;0.90;97258.00;;;;8252658;28;20272;-69
2022/01/27 03:09:45;;;;;;;26.83;10.03;;;;;0.80;97254.00;;;;8251274;28;20223;-69
2022/01/27 03:13:48;;;;;;;33.43;13.77;;;;;0.70;97249.00;;;;8256513;28;20560;-70
2022/01/27 03:17:51;;;;;;;30.23;12.03;;;;;0.70;97236.00;;;;8269766;28;20225;-69
2022/01/27 03:21:55;;;;;;;33.90;12.63;;;;;0.70;97237.00;;;;8261863;28;20237;-69
2022/01/27 03:26:00;;;;;;;31.43;12.63;;;;;0.70;97224.00;;;;8259548;28;20234;-69
2022/01/27 03:30:04;;;;;;;25.87;10.20;;;;;0.70;97220.00;;;;8248562;28;20245;-69
2022/01/27 03:34:07;;;;;;;32.73;12.73;;;;;0.70;97228.00;;;;8266672;28;20222;-69
2022/01/27 03:38:10;;;;;;;27.53;13.23;;;;;0.80;97210.00;;;;8260221;28;20294;-69
2022/01/27 03:42:14;;;;;;;29.30;12.40;;;;;0.80;97208.00;;;;8263669;28;20230;-69
2022/01/27 03:46:19;;;;;;;33.30;13.47;;;;;0.70;97208.00;;;;8262640;28;20227;-69
2022/01/27 03:50:22;;;;;;;32.27;13.33;;;;;0.80;97202.00;;;;8261152;28;20284;-68
2022/01/27 03:54:26;;;;;;;31.93;13.17;;;;;0.80;97204.00;;;;8263051;28;20296;-69
2022/01/27 03:58:30;;;;;;;32.60;12.97;;;;;0.80;97206.00;;;;8260720;28;20909;-68
2022/01/27 04:02:35;;;;;;;35.93;15.23;;;;;0.90;97212.00;;;;8249752;28;20292;-68
2022/01/27 04:06:40;;;;;;;31.87;13.10;;;;;1.00;97207.00;;;;8246993;28;20237;-68
2022/01/27 04:10:44;;;;;;;30.63;13.57;;;;;1.00;97207.00;;;;8248707;28;20313;-68
2022/01/27 04:14:48;;;;;;;29.00;13.23;;;;;1.00;97204.00;;;;8254371;28;20861;-68
2022/01/27 04:18:51;;;;;;;29.60;13.10;;;;;0.90;97186.00;;;;8250328;28;20235;-68
2022/01/27 04:22:54;;;;;;;35.87;14.13;;;;;0.90;97182.00;;;;8250304;28;20223;-68
2022/01/27 04:27:02;;;;;;;30.27;13.10;;;;;0.90;97189.00;;;;8253362;28;20285;-69
2022/01/27 04:31:09;;;;;;;29.77;12.27;;;;;0.90;97172.00;;;;8243845;28;20222;-68
2022/01/27 04:35:16;;;;;;;32.80;12.97;;;;;0.90;97168.00;;;;8260266;28;20246;-69
2022/01/27 04:39:24;;;;;;;29.53;12.17;;;;;0.90;97168.00;;;;8261707;28;20945;-69
2022/01/27 04:43:35;;;;;;;27.87;12.47;;;;;0.80;97167.00;;;;8264268;28;20238;-69
2022/01/27 04:47:44;;;;;;;29.90;12.97;;;;;0.80;97151.00;;;;8261420;28;20310;-69
2022/01/27 04:51:47;;;;;;;30.53;12.97;;;;;0.80;97140.00;;;;8250635;28;20281;-69
2022/01/27 04:55:50;;;;;;;35.00;13.63;;;;;0.80;97137.00;;;;8262219;28;20639;-69
2022/01/27 04:59:53;;;;;;;26.63;11.40;;;;;0.80;97147.00;;;;8250040;28;20262;-69
2022/01/27 05:04:02;;;;;;;24.63;10.07;;;;;0.80;97142.00;;;;8248549;28;20285;-69
2022/01/27 05:08:09;;;;;;;30.73;13.13;;;;;0.80;97131.00;;;;8256303;28;20313;-69
2022/01/27 05:12:20;;;;;;;24.53;10.47;;;;;0.70;97128.00;;;;8264704;28;20222;-69
2022/01/27 05:16:23;;;;;;;31.57;14.17;;;;;0.70;97123.00;;;;8262496;28;20292;-69
2022/01/27 05:20:28;;;;;;;29.63;12.37;;;;;0.70;97122.00;;;;8250556;28;20234;-70
2022/01/27 05:24:31;;;;;;;55.37;26.33;;;;;0.60;97111.00;;;;8267731;28;20229;-70
2022/01/27 05:28:34;;;;;;;40.30;17.53;;;;;0.70;97098.00;;;;8254867;28;20229;-69
2022/01/27 05:32:37;;;;;;;48.90;21.20;;;;;0.70;97106.00;;;;8261826;28;20682;-71
2022/01/27 05:36:41;;;;;;;95.00;35.93;;;;;0.80;97120.00;;;;8259389;28;20230;-70
2022/01/27 05:40:45;;;;;;;348.93;173.20;;;;;0.90;97100.00;;;;8265319;28;20690;-72
2022/01/27 05:44:48;;;;;;;43.77;20.50;;;;;0.80;97100.00;;;;8246192;28;20230;-73
2022/01/27 05:48:51;;;;;;;26.27;12.67;;;;;0.80;97084.00;;;;8257185;28;20227;-69
2022/01/27 05:52:55;;;;;;;46.33;20.00;;;;;0.60;97087.00;;;;8266934;28;20615;-69
2022/01/27 05:56:58;;;;;;;121.67;71.70;;;;;0.60;97092.00;;;;8250804;28;20317;-71
2022/01/27 06:01:01;;;;;;;176.17;78.03;;;;;0.60;97106.00;;;;8241844;28;20223;-70
2022/01/27 06:05:05;;;;;;;32.17;12.93;;;;;0.70;97091.00;;;;8255347;28;20215;-70
2022/01/27 06:09:10;;;;;;;35.97;14.83;;;;;0.70;97081.00;;;;8249469;28;20614;-69
2022/01/27 06:13:13;;;;;;;41.20;19.43;;;;;0.70;97090.00;;;;8260240;28;20217;-69
2022/01/27 06:17:16;;;;;;;40.07;14.70;;;;;0.80;97100.00;;;;8258099;28;20683;-70
2022/01/27 06:21:20;;;;;;;33.17;14.33;;;;;0.90;97102.00;;;;8253444;28;20301;-70
2022/01/27 06:25:26;;;;;;;35.93;14.43;;;;;0.90;97121.00;;;;8252053;28;20635;-71
2022/01/27 06:29:29;;;;;;;31.27;13.43;;;;;0.90;97133.00;;;;8261367;28;20233;-70
2022/01/27 06:33:32;;;;;;;35.93;13.77;;;;;0.90;97138.00;;;;8249482;28;20227;-70
2022/01/27 06:37:37;;;;;;;39.00;14.90;;;;;0.80;97158.00;;;;8253541;28;20286;-69
2022/01/27 06:41:42;;;;;;;36.07;14.30;;;;;0.80;97166.00;;;;8253441;28;20228;-69
2022/01/27 06:45:45;;;;;;;38.50;15.50;;;;;0.80;97168.00;;;;8252040;28;20246;-69
2022/01/27 06:49:49;;;;;;;36.30;14.50;;;;;0.80;97157.00;;;;8247349;28;20281;-71
2022/01/27 06:53:52;;;;;;;30.97;13.27;;;;;0.80;97149.00;;;;8248035;28;20238;-69
2022/01/27 06:57:56;;;;;;;43.43;16.03;;;;;0.70;97161.00;;;;8250068;28;20853;-69
2022/01/27 07:01:59;;;;;;;38.80;13.93;;;;;0.70;97123.00;;;;8254047;28;20230;-70
2022/01/27 07:06:02;;;;;;;37.10;14.90;;;;;0.60;97095.00;;;;8251778;28;20238;-70
2022/01/27 07:10:07;;;;;;;29.33;12.13;;;;;0.60;97098.00;;;;8234338;28;20234;-69
2022/01/27 07:14:11;;;;;;;38.93;14.20;;;;;0.60;97113.00;;;;8247681;28;20239;-69
2022/01/27 07:18:14;;;;;;;38.53;15.17;;;;;0.60;97120.00;;;;8245164;28;20235;-69
2022/01/27 07:22:18;;;;;;;32.10;13.20;;;;;0.70;97120.00;;;;8249375;28;20684;-69
2022/01/27 07:26:25;;;;;;;38.07;13.93;;;;;0.70;97107.00;;;;8248665;28;20292;-70
2022/01/27 07:30:29;;;;;;;41.07;14.07;;;;;0.80;97107.00;;;;8248547;28;20226;-69
2022/01/27 07:34:32;;;;;;;28.67;12.27;;;;;0.90;97114.00;;;;8244166;28;20234;-70
2022/01/27 07:38:35;;;;;;;32.30;11.83;;;;;0.90;97093.00;;;;8247515;28;20226;-69
2022/01/27 07:42:39;;;;;;;27.13;12.03;;;;;0.90;97090.00;;;;8249228;28;20280;-69
2022/01/27 07:46:43;;;;;;;34.80;15.30;;;;;1.00;97114.00;;;;8247060;28;20231;-70
2022/01/27 07:50:46;;;;;;;30.60;12.97;;;;;1.00;97134.00;;;;8247870;28;20294;-69
2022/01/27 07:54:49;;;;;;;33.83;13.03;;;;;0.90;97126.00;;;;8248439;28;20223;-68
2022/01/27 07:58:52;;;;;;;37.93;13.20;;;;;0.90;97127.00;;;;8233738;28;20290;-68
2022/01/27 08:02:57;;;;;;;37.27;14.37;;;;;0.90;97126.00;;;;8243348;28;20590;-68
2022/01/27 08:07:02;;;;;;;38.77;15.23;;;;;1.00;97096.00;;;;8255423;28;20232;-68
2022/01/27 08:11:05;;;;;;;29.87;13.23;;;;;1.10;97047.00;;;;8262613;28;20230;-68
2022/01/27 08:15:11;;;;;;;37.67;15.03;;;;;1.00;97051.00;;;;8248797;28;20288;-69
2022/01/27 08:19:15;;;;;;;39.53;14.60;;;;;1.10;97050.00;;;;8251810;28;20235;-69
2022/01/27 08:23:20;;;;;;;38.53;14.80;;;;;1.10;97047.00;;;;8252603;28;20238;-69
2022/01/27 08:27:27;;;;;;;41.23;14.30;;;;;1.10;97029.00;;;;8232522;28;20230;-69
2022/01/27 08:31:41;;;;;;;38.07;14.10;;;;;1.20;97028.00;;;;8243811;28;20233;-68
2022/01/27 08:35:46;;;;;;;35.83;14.43;;;;;1.30;97035.00;;;;8251599;28;20222;-70
2022/01/27 08:39:49;;;;;;;37.30;13.50;;;;;1.40;97059.00;;;;8252059;28;20322;-70
2022/01/27 08:43:53;;;;;;;38.93;14.43;;;;;1.40;97070.00;;;;8254109;28;20316;-68
2022/01/27 08:48:02;;;;;;;37.23;13.73;;;;;1.30;97079.00;;;;8252859;28;20258;-71
2022/01/27 08:52:06;;;;;;;43.57;14.93;;;;;1.30;97087.00;;;;8255236;28;20234;-68
2022/01/27 08:56:13;;;;;;;46.47;14.10;;;;;1.30;97096.00;;;;8252845;28;20670;-71
2022/01/27 09:00:19;;;;;;;40.07;13.73;;;;;1.20;97099.00;;;;8263191;28;20238;-69
2022/01/27 09:04:42;;;;;;;40.77;14.03;;;;;1.20;97094.00;;;;8262565;28;20232;-69
2022/01/27 09:08:46;;;;;;;48.07;15.57;;;;;1.10;97094.00;;;;8262039;28;20292;-69
2022/01/27 09:12:49;;;;;;;41.20;15.67;;;;;1.20;97092.00;;;;8253172;28;20277;-69
2022/01/27 09:16:52;;;;;;;38.00;13.40;;;;;1.20;97111.00;;;;8257123;28;20709;-70
2022/01/27 09:20:56;;;;;;;34.73;14.53;;;;;1.20;97108.00;;;;8247889;28;20226;-68
2022/01/27 09:25:08;;;;;;;41.80;14.30;;;;;1.20;97110.00;;;;8251914;28;20228;-68
2022/01/27 09:29:11;;;;;;;40.77;13.70;;;;;1.10;97095.00;;;;8242711;28;20234;-70
2022/01/27 09:33:14;;;;;;;38.77;13.63;;;;;1.10;97081.00;;;;8260056;28;20651;-69
2022/01/27 09:37:17;;;;;;;34.07;11.70;;;;;1.20;97075.00;;;;8247606;28;20266;-69
2022/01/27 09:41:22;;;;;;;29.23;11.37;;;;;1.20;97093.00;;;;8228074;28;20227;-70
2022/01/27 09:45:27;;;;;;;42.60;14.63;;;;;1.40;97095.00;;;;8251676;28;20302;-69
2022/01/27 09:49:36;;;;;;;37.67;14.20;;;;;1.40;97080.00;;;;8252857;28;20235;-68
2022/01/27 09:53:39;;;;;;;38.77;13.97;;;;;1.40;97079.00;;;;8252201;28;20235;-70
2022/01/27 09:57:45;;;;;;;44.20;15.60;;;;;1.50;97078.00;;;;8257135;28;20237;-71
2022/01/27 10:01:57;;;;;;;39.53;13.60;;;;;1.60;97087.00;;;;8246956;28;20296;-69
2022/01/27 10:06:10;;;;;;;38.50;12.67;;;;;1.60;97095.00;;;;8247266;28;21005;-70
2022/01/27 10:10:17;;;;;;;27.47;12.77;;;;;1.60;97087.00;;;;8250103;28;20242;-70
2022/01/27 10:14:23;;;;;;;27.63;11.20;;;;;1.40;97096.00;;;;8251290;28;20226;-69
2022/01/27 10:18:27;;;;;;;38.40;13.60;;;;;1.40;97087.00;;;;8246174;28;20238;-70
2022/01/27 10:22:30;;;;;;;39.53;15.43;;;;;1.50;97088.00;;;;8250211;28;20316;-69
2022/01/27 10:26:41;;;;;;;35.47;13.03;;;;;1.50;97088.00;;;;8239395;28;20223;-69
2022/01/27 10:30:48;;;;;;;33.17;13.13;;;;;1.50;97076.00;;;;8250621;28;20280;-72
2022/01/27 10:34:55;;;;;;;36.47;13.73;;;;;1.60;97066.00;;;;8247634;28;20244;-69
2022/01/27 10:39:00;;;;;;;31.53;12.60;;;;;1.60;97080.00;;;;8247898;28;20292;-69
2022/01/27 10:43:07;;;;;;;33.53;13.70;;;;;1.50;97060.00;;;;8258366;28;20248;-70
2022/01/27 10:47:17;;;;;;;35.70;12.73;;;;;1.70;97061.00;;;;8256288;28;20318;-71
2022/01/27 10:51:25;;;;;;;32.33;13.97;;;;;1.80;97066.00;;;;8253182;28;20235;-69
2022/01/27 10:55:28;;;;;;;36.30;13.53;;;;;1.80;97071.00;;;;8256095;28;20246;-70
2022/01/27 10:59:33;;;;;;;32.37;12.50;;;;;1.80;97074.00;;;;8258904;28;20234;-71
2022/01/27 11:03:37;;;;;;;35.40;14.47;;;;;1.70;97063.00;;;;8246674;28;20264;-70
2022/01/27 11:07:40;;;;;;;31.97;14.37;;;;;1.70;97076.00;;;;8256952;28;20269;-70
2022/01/27 11:11:43;;;;;;;32.47;12.43;;;;;1.60;97074.00;;;;8253373;28;20631;-71
2022/01/27 11:15:46;;;;;;;36.33;13.47;;;;;1.70;97064.00;;;;8246809;28;20288;-71
2022/01/27 11:20:16;;;;;;;27.10;11.60;;;;;1.60;97057.00;;;;8248602;28;20604;-71
2022/01/27 11:24:27;;;;;;;40.97;14.27;;;;;1.60;97062.00;;;;8249461;28;20225;-72
2022/01/27 11:28:32;;;;;;;24.50;9.17;;;;;1.60;97067.00;;;;8249646;28;20279;-72
2022/01/27 11:32:37;;;;;;;32.97;11.90;;;;;1.60;97074.00;;;;8244274;28;20239;-72
2022/01/27 11:37:00;;;;;;;37.93;13.57;;;;;1.40;97077.00;;;;8257709;28;20223;-72
2022/01/27 11:41:03;;;;;;;35.83;12.63;;;;;1.50;97056.00;;;;8262056;28;20245;-72
2022/01/27 11:45:29;;;;;;;37.33;12.47;;;;;1.40;97058.00;;;;8256836;28;20230;-72
2022/01/27 11:49:54;;;;;;;30.93;10.80;;;;;1.40;97065.00;;;;8255850;28;20245;-72
2022/01/27 11:54:00;;;;;;;39.17;12.13;;;;;1.30;97074.00;;;;8249978;28;20273;-72
2022/01/27 11:58:13;;;;;;;31.50;11.57;;;;;1.30;97076.00;;;;8245729;28;20230;-71
2022/01/27 12:02:17;;;;;;;38.03;12.53;;;;;1.20;97062.00;;;;8246582;28;20285;-71
2022/01/27 12:06:22;;;;;;;38.83;12.13;;;;;1.20;97045.00;;;;8260932;28;20230;-71
2022/01/27 12:10:46;;;;;;;26.17;9.27;;;;;1.20;97056.00;;;;8250352;28;20232;-71
2022/01/27 12:15:09;;;;;;;40.10;12.70;;;;;1.10;97053.00;;;;8254336;28;20218;-71
2022/01/27 12:19:13;;;;;;;31.30;11.20;;;;;1.10;97042.00;;;;8249426;28;20297;-70
2022/01/27 12:23:16;;;;;;;39.17;13.30;;;;;1.00;97040.00;;;;8252826;28;20866;-70
2022/01/27 12:27:22;;;;;;;45.83;12.93;;;;;1.20;97034.00;;;;8251910;28;20241;-70
2022/01/27 12:31:46;;;;;;;35.73;11.37;;;;;1.20;97028.00;;;;8264885;28;20237;-70
2022/01/27 12:35:53;;;;;;;37.67;12.23;;;;;1.30;97029.00;;;;8252076;28;20270;-70
2022/01/27 12:39:57;;;;;;;25.93;9.50;;;;;1.40;97011.00;;;;8252967;28;20232;-70
2022/01/27 12:44:10;;;;;;;33.70;10.63;;;;;1.50;96987.00;;;;8256181;28;20243;-70
2022/01/27 12:48:22;;;;;;;29.10;10.10;;;;;1.60;96980.00;;;;8249513;28;20354;-71
2022/01/27 12:52:29;;;;;;;31.30;10.77;;;;;1.70;96968.00;;;;8251113;28;20330;-71
2022/01/27 12:56:32;;;;;;;38.97;16.00;;;;;1.70;96971.00;;;;8251033;28;20257;-71
2022/01/27 13:00:39;;;;;;;273.13;109.67;;;;;1.70;96969.00;;;;8250923;28;20266;-72
2022/01/27 13:04:43;;;;;;;472.37;230.37;;;;;1.70;96964.00;;;;8264074;28;20250;-72
2022/01/27 13:08:46;;;;;;;78.13;32.73;;;;;1.80;96962.00;;;;8253263;28;20293;-70
2022/01/27 13:12:52;;;;;;;75.63;29.93;;;;;1.80;96963.00;;;;8250186;28;20240;-71
2022/01/27 13:17:01;;;;;;;56.33;27.23;;;;;1.90;96960.00;;;;8249848;28;20219;-70
2022/01/27 13:21:08;;;;;;;33.40;16.43;;;;;2.00;96955.00;;;;8245993;28;20597;-71
2022/01/27 13:25:11;;;;;;;92.93;47.87;;;;;2.00;96956.00;;;;8254593;28;20232;-70
2022/01/27 13:29:14;;;;;;;174.30;104.63;;;;;2.00;96943.00;;;;8249190;28;20232;-70
2022/01/27 13:33:21;;;;;;;17.40;7.80;;;;;2.00;96940.00;;;;8253570;28;20744;-70
2022/01/27 13:37:29;;;;;;;20.63;8.33;;;;;2.10;96912.00;;;;8251219;28;20227;-70
2022/01/27 13:41:34;;;;;;;16.43;7.90;;;;;2.20;96920.00;;;;8252117;28;20231;-70
2022/01/27 13:45:36;;;;;;;22.50;10.67;;;;;2.10;96920.00;;;;8249687;28;20695;-70
2022/01/27 13:49:41;;;;;;;24.33;15.00;;;;;2.10;96912.00;;;;8247407;28;20236;-69
2022/01/27 13:53:58;;;;;;;20.70;9.50;;;;;2.10;96895.00;;;;8253890;28;20227;-69
2022/01/27 13:58:03;;;;;;;14.87;7.53;;;;;2.10;96910.00;;;;8250630;28;20254;-69
2022/01/27 14:02:17;;;;;;;15.83;8.87;;;;;2.10;96917.00;;;;8249500;28;20235;-69
2022/01/27 14:06:22;;;;;;;16.77;6.57;;;;;2.10;96914.00;;;;8248953;28;20251;-68
2022/01/27 14:10:30;;;;;;;18.67;7.17;;;;;2.10;96912.00;;;;8250168;28;20229;-69
2022/01/27 14:14:47;;;;;;;20.20;7.83;;;;;2.10;96902.00;;;;8249168;28;20263;-70
2022/01/27 14:18:51;;;;;;;19.53;8.10;;;;;2.10;96902.00;;;;8250159;28;20234;-70
2022/01/27 14:23:17;;;;;;;16.50;7.77;;;;;2.10;96903.00;;;;8249327;28;20223;-70
2022/01/27 14:27:31;;;;;;;23.87;8.50;;;;;2.10;96911.00;;;;8248843;28;20254;-70
2022/01/27 14:31:35;;;;;;;18.60;8.33;;;;;2.10;96923.00;;;;8248604;28;20266;-69
2022/01/27 14:35:42;;;;;;;17.77;6.80;;;;;2.10;96929.00;;;;8244853;28;20237;-70
2022/01/27 14:39:47;;;;;;;19.53;7.67;;;;;2.00;96915.00;;;;8257531;28;20265;-70
2022/01/27 14:43:51;;;;;;;15.60;5.73;;;;;1.90;96899.00;;;;8256059;28;20241;-70
2022/01/27 14:48:00;;;;;;;17.33;6.67;;;;;1.90;96896.00;;;;8257863;28;20240;-71
2022/01/27 14:52:10;;;;;;;17.60;6.83;;;;;2.00;96886.00;;;;8241609;28;21041;-69
2022/01/27 14:56:14;;;;;;;23.17;7.87;;;;;2.10;96874.00;;;;8239662;28;20688;-69
2022/01/27 15:00:18;;;;;;;19.77;7.27;;;;;2.10;96897.00;;;;8246255;28;20277;-69
2022/01/27 15:04:21;;;;;;;17.40;6.27;;;;;2.10;96891.00;;;;8244318;28;20241;-69
2022/01/27 15:08:25;;;;;;;21.53;8.40;;;;;2.10;96894.00;;;;8238573;28;20229;-69
2022/01/27 15:12:29;;;;;;;17.03;7.20;;;;;2.20;96877.00;;;;8252345;28;20270;-70
2022/01/27 15:20:56;;;;;;;18.30;7.27;;;;;2.20;96838.00;;;;8244312;28;20324;-70
2022/01/27 15:25:00;;;;;;;16.87;7.50;;;;;2.20;96857.00;;;;8256000;28;20222;-70
2022/01/27 15:29:08;;;;;;;26.53;8.70;;;;;2.20;96859.00;;;;8247910;28;20503;-70
2022/01/27 15:33:12;;;;;;;19.73;8.33;;;;;2.20;96866.00;;;;8251843;28;20226;-74
2022/01/27 15:37:16;;;;;;;29.03;8.87;;;;;2.20;96873.00;;;;8258187;28;20285;-72
2022/01/27 15:41:19;;;;;;;30.40;10.37;;;;;2.20;96864.00;;;;8254603;28;20228;-70
2022/01/27 15:45:26;;;;;;;22.93;9.90;;;;;2.20;96856.00;;;;8254365;28;20273;-69
2022/01/27 15:49:29;;;;;;;28.80;10.63;;;;;2.20;96848.00;;;;8259931;28;20245;-69
2022/01/27 15:53:32;;;;;;;15.47;6.97;;;;;2.20;96844.00;;;;8258754;28;20234;-69
2022/01/27 15:57:35;;;;;;;38.27;16.87;;;;;2.20;96842.00;;;;8248909;28;20274;-74
2022/01/27 16:01:40;;;;;;;246.67;103.10;;;;;2.10;96831.00;;;;8253802;28;20233;-73
2022/01/27 16:05:43;;;;;;;468.37;200.80;;;;;2.20;96844.00;;;;8254914;28;20238;-73
2022/01/27 16:09:46;;;;;;;154.07;53.43;;;;;2.20;96850.00;;;;8265982;28;20230;-73
2022/01/27 16:13:49;;;;;;;558.50;195.33;;;;;2.20;96841.00;;;;8260979;28;20235;-74
2022/01/27 16:17:54;;;;;;;323.60;102.77;;;;;2.30;96835.00;;;;8255396;28;20226;-74
2022/01/27 16:21:58;;;;;;;302.67;94.77;;;;;2.30;96827.00;;;;8265804;28;20243;-74
2022/01/27 16:26:03;;;;;;;414.23;112.40;;;;;2.30;96834.00;;;;8257238;28;20323;-75
2022/01/27 16:30:08;;;;;;;233.50;67.37;;;;;2.40;96840.00;;;;8253157;28;20235;-76
2022/01/27 16:34:13;;;;;;;557.03;160.93;;;;;2.40;96847.00;;;;8251635;28;20294;-77
2022/01/27 16:38:37;;;;;;;334.37;79.47;;;;;2.50;96845.00;;;;8251141;28;20239;-76
2022/01/27 16:42:40;;;;;;;299.90;73.23;;;;;2.50;96837.00;;;;8252923;28;20949;-79
2022/01/27 16:46:44;;;;;;;543.07;129.57;;;;;2.50;96849.00;;;;8250658;28;20676;-77
2022/01/27 16:50:49;;;;;;;773.90;177.03;;;;;2.60;96849.00;;;;8261852;28;20239;-75
2022/01/27 16:54:52;;;;;;;777.07;175.63;;;;;2.60;96837.00;;;;8257061;28;20229;-74
2022/01/27 16:58:56;;;;;;;659.60;142.07;;;;;2.70;96840.00;;;;8262042;28;20322;-72
2022/01/27 17:02:59;;;;;;;275.30;109.03;;;;;2.70;96839.00;;;;8264128;28;20386;-74
2022/01/27 17:07:04;;;;;;;100.40;49.47;;;;;2.70;96835.00;;;;8247770;28;20859;-72
2022/01/27 17:11:07;;;;;;;39.67;21.23;;;;;2.70;96836.00;;;;8260838;28;20604;-73
2022/01/27 17:15:12;;;;;;;33.10;17.00;;;;;2.70;96833.00;;;;8261723;28;20228;-73
2022/01/27 17:19:16;;;;;;;30.23;16.20;;;;;2.80;96842.00;;;;8258905;28;20235;-72
2022/01/27 17:23:21;;;;;;;27.20;12.50;;;;;2.80;96835.00;;;;8265185;28;20238;-73
2022/01/27 17:27:24;;;;;;;20.53;9.43;;;;;2.80;96833.00;;;;8261446;28;20310;-73
2022/01/27 17:31:27;;;;;;;21.77;9.80;;;;;2.80;96831.00;;;;8256771;28;20628;-74
2022/01/27 17:35:30;;;;;;;18.97;7.87;;;;;2.90;96826.00;;;;8254104;28;20227;-72
2022/01/27 17:39:34;;;;;;;20.83;9.87;;;;;2.90;96824.00;;;;8259712;28;20258;-74
2022/01/27 17:43:44;;;;;;;25.47;9.70;;;;;2.90;96822.00;;;;8260013;28;20245;-74
2022/01/27 17:47:51;;;;;;;22.03;9.07;;;;;3.00;96840.00;;;;8251883;28;20244;-73
2022/01/27 17:51:54;;;;;;;17.83;8.50;;;;;3.00;96825.00;;;;8256448;28;20264;-73
2022/01/27 17:56:00;;;;;;;22.90;9.63;;;;;3.00;96823.00;;;;8258595;28;20223;-73
2022/01/27 18:00:05;;;;;;;19.00;8.57;;;;;3.10;96819.00;;;;8255493;28;20315;-74
2022/01/27 18:04:08;;;;;;;20.17;9.07;;;;;3.10;96815.00;;;;8257758;28;20341;-74
2022/01/27 18:08:11;;;;;;;18.83;8.67;;;;;3.10;96811.00;;;;8261171;28;20305;-74
2022/01/27 18:12:15;;;;;;;20.83;9.10;;;;;3.10;96835.00;;;;8256305;28;20225;-76
2022/01/27 18:16:18;;;;;;;16.37;7.90;;;;;3.10;96818.00;;;;8260224;28;20228;-75
2022/01/27 18:20:21;;;;;;;18.17;8.33;;;;;3.20;96807.00;;;;8251932;28;20991;-71
2022/01/27 18:24:24;;;;;;;13.57;7.23;;;;;3.20;96798.00;;;;8255296;28;20329;-75
2022/01/27 18:28:29;;;;;;;16.30;7.50;;;;;3.20;96801.00;;;;8253880;28;20225;-71
2022/01/27 18:32:32;;;;;;;16.80;7.60;;;;;3.20;96807.00;;;;8262367;28;20308;-71
2022/01/27 18:36:35;;;;;;;16.10;7.27;;;;;3.20;96803.00;;;;8257282;28;20306;-74
2022/01/27 18:40:40;;;;;;;17.17;7.53;;;;;3.20;96800.00;;;;8261056;28;20235;-74
2022/01/27 18:44:45;;;;;;;17.23;7.97;;;;;3.20;96795.00;;;;8259050;28;20269;-74
2022/01/27 18:48:48;;;;;;;10.93;5.00;;;;;3.30;96796.00;;;;8259180;28;20224;-68
2022/01/27 18:52:51;;;;;;;13.70;7.07;;;;;3.30;96786.00;;;;8262812;28;20231;-76
2022/01/27 18:56:55;;;;;;;16.67;7.23;;;;;3.30;96789.00;;;;8257037;28;20231;-68
2022/01/27 19:01:01;;;;;;;16.00;6.70;;;;;3.30;96775.00;;;;8251664;28;21593;-77
2022/01/27 19:05:04;;;;;;;13.23;6.97;;;;;3.30;96780.00;;;;8261958;28;20235;-78
2022/01/27 19:09:08;;;;;;;16.50;7.97;;;;;3.30;96775.00;;;;8258852;28;20324;-73
2022/01/27 19:13:11;;;;;;;13.03;7.00;;;;;3.30;96777.00;;;;8256954;28;20234;-72
2022/01/27 19:17:15;;;;;;;20.47;10.47;;;;;3.40;96770.00;;;;8264708;28;20244;-72
2022/01/27 19:21:19;;;;;;;24.47;11.07;;;;;3.40;96767.00;;;;8257684;28;20289;-73
2022/01/27 19:25:24;;;;;;;29.40;12.53;;;;;3.40;96774.00;;;;8252298;28;21704;-72
2022/01/27 19:29:31;;;;;;;16.47;7.40;;;;;3.40;96776.00;;;;8248626;28;20233;-71
2022/01/27 19:33:37;;;;;;;24.20;12.30;;;;;3.40;96774.00;;;;8249186;28;20228;-71
2022/01/27 19:37:40;;;;;;;12.80;6.07;;;;;3.40;96779.00;;;;8249500;28;20297;-73
2022/01/27 19:41:44;;;;;;;19.60;9.43;;;;;3.40;96778.00;;;;8252012;28;20235;-73
2022/01/27 19:45:47;;;;;;;10.03;5.53;;;;;3.40;96782.00;;;;8249553;28;20245;-75
2022/01/27 19:49:53;;;;;;;21.10;11.07;;;;;3.40;96774.00;;;;8255709;28;20226;-72
2022/01/27 19:53:56;;;;;;;10.63;5.60;;;;;3.50;96774.00;;;;8265357;28;20307;-72
2022/01/27 19:58:00;;;;;;;21.87;12.70;;;;;3.50;96773.00;;;;8261276;28;20301;-74
2022/01/27 20:02:04;;;;;;;11.43;5.40;;;;;3.50;96776.00;;;;8266363;28;20303;-73
2022/01/27 20:06:09;;;;;;;14.50;7.60;;;;;3.50;96780.00;;;;8265240;28;20287;-73
2022/01/27 20:10:12;;;;;;;12.63;5.90;;;;;3.50;96774.00;;;;8260957;28;20278;-74
2022/01/27 20:14:15;;;;;;;10.87;5.50;;;;;3.50;96772.00;;;;8268326;28;20958;-73
2022/01/27 20:18:20;;;;;;;11.27;6.17;;;;;3.50;96768.00;;;;8265251;28;20682;-73
2022/01/27 20:22:25;;;;;;;9.63;4.57;;;;;3.50;96763.00;;;;8272104;28;20693;-74
2022/01/27 20:26:28;;;;;;;9.07;5.77;;;;;3.50;96757.00;;;;8261959;28;20236;-75
2022/01/27 20:30:31;;;;;;;9.40;4.70;;;;;3.50;96747.00;;;;8261319;28;20312;-74
2022/01/27 20:34:35;;;;;;;10.50;5.17;;;;;3.60;96765.00;;;;8266553;28;20912;-75
2022/01/27 20:38:40;;;;;;;6.93;4.43;;;;;3.60;96754.00;;;;8248489;28;20222;-75
2022/01/27 20:42:45;;;;;;;5.73;4.03;;;;;3.60;96756.00;;;;8267961;28;20628;-75
2022/01/27 20:46:48;;;;;;;9.63;5.37;;;;;3.60;96762.00;;;;8261116;28;20736;-74
2022/01/27 20:50:53;;;;;;;7.40;4.27;;;;;3.60;96765.00;;;;8256178;28;20679;-74